sensor_id;sensor_type;location;lat;lon;timestamp;P1;durP1;ratioP1;P2;durP2;ratioP2
43706;SDS011;61348;53.392;-6.248;2023-05-10T00:01:59;12.45;;;2.63;;
43706;SDS011;61348;53.392;-6.248;2023-05-10T00:04:26;6.63;;;2.35;;
43706;SDS011;61348;53.392;-6.248;2023-05-10T00:06:53;9.95;;;1.80;;
43706;SDS011;61348;53.392;-6.248;2023-05-10T00:09:21;10.13;;;1.77;;
43706;SDS011;61348;53.392;-6.248;2023-05-10T00:11:47;11.57;;;2.35;;
43706;SDS011;61348;53.392;-6.248;2023-05-10T00:14:14;10.63;;;1.75;;
43706;SDS011;61348;53.392;-6.248;2023-05-10T00:16:40;6.25;;;1.90;;
43706;SDS011;61348;53.392;-6.248;2023-05-10T00:19:07;7.38;;;2.15;;
43706;SDS011;61348;53.392;-6.248;2023-05-10T00:21:34;12.27;;;3.70;;
43706;SDS011;61348;53.392;-6.248;2023-05-10T00:24:00;7.45;;;1.60;;
43706;SDS011;61348;53.392;-6.248;2023-05-10T00:26:27;6.25;;;1.50;;
43706;SDS011;61348;53.392;-6.248;2023-05-10T00:28:54;9.00;;;3.15;;
43706;SDS011;61348;53.392;-6.248;2023-05-10T00:31:21;6.93;;;2.03;;
43706;SDS011;61348;53.392;-6.248;2023-05-10T00:33:47;7.32;;;1.48;;
43706;SDS011;61348;53.392;-6.248;2023-05-10T00:36:14;12.70;;;1.90;;
43706;SDS011;61348;53.392;-6.248;2023-05-10T00:38:41;8.65;;;1.48;;
43706;SDS011;61348;53.392;-6.248;2023-05-10T00:41:08;5.45;;;1.52;;
43706;SDS011;61348;53.392;-6.248;2023-05-10T00:43:34;5.28;;;1.63;;
43706;SDS011;61348;53.392;-6.248;2023-05-10T00:46:02;3.70;;;1.17;;
43706;SDS011;61348;53.392;-6.248;2023-05-10T00:48:29;6.28;;;1.63;;
43706;SDS011;61348;53.392;-6.248;2023-05-10T00:50:57;8.70;;;1.58;;
43706;SDS011;61348;53.392;-6.248;2023-05-10T00:53:24;5.35;;;1.48;;
43706;SDS011;61348;53.392;-6.248;2023-05-10T00:55:50;9.57;;;3.15;;
43706;SDS011;61348;53.392;-6.248;2023-05-10T00:58:17;7.63;;;2.17;;
43706;SDS011;61348;53.392;-6.248;2023-05-10T01:00:44;12.13;;;1.70;;
43706;SDS011;61348;53.392;-6.248;2023-05-10T01:03:14;9.30;;;1.95;;
43706;SDS011;61348;53.392;-6.248;2023-05-10T01:05:41;2.83;;;1.40;;
43706;SDS011;61348;53.392;-6.248;2023-05-10T01:08:08;7.65;;;1.63;;
43706;SDS011;61348;53.392;-6.248;2023-05-10T01:10:35;7.22;;;1.88;;
43706;SDS011;61348;53.392;-6.248;2023-05-10T01:13:02;6.65;;;1.63;;
43706;SDS011;61348;53.392;-6.248;2023-05-10T01:15:29;6.43;;;1.92;;
43706;SDS011;61348;53.392;-6.248;2023-05-10T01:17:57;7.68;;;2.00;;
43706;SDS011;61348;53.392;-6.248;2023-05-10T01:20:24;7.03;;;1.80;;
43706;SDS011;61348;53.392;-6.248;2023-05-10T01:26:25;5.05;;;1.45;;
43706;SDS011;61348;53.392;-6.248;2023-05-10T01:34:19;9.85;;;1.50;;
43706;SDS011;61348;53.392;-6.248;2023-05-10T01:36:54;11.15;;;2.78;;
43706;SDS011;61348;53.392;-6.248;2023-05-10T01:39:25;6.18;;;1.35;;
43706;SDS011;61348;53.392;-6.248;2023-05-10T01:42:14;4.50;;;1.20;;
43706;SDS011;61348;53.392;-6.248;2023-05-10T01:50:16;5.68;;;1.15;;
43706;SDS011;61348;53.392;-6.248;2023-05-10T01:52:53;5.90;;;1.08;;
43706;SDS011;61348;53.392;-6.248;2023-05-10T01:55:23;6.63;;;1.25;;
43706;SDS011;61348;53.392;-6.248;2023-05-10T01:57:52;5.78;;;1.58;;
43706;SDS011;61348;53.392;-6.248;2023-05-10T02:00:29;6.45;;;1.10;;
43706;SDS011;61348;53.392;-6.248;2023-05-10T02:02:57;3.75;;;1.02;;
43706;SDS011;61348;53.392;-6.248;2023-05-10T02:05:26;4.07;;;1.15;;
43706;SDS011;61348;53.392;-6.248;2023-05-10T02:07:56;5.20;;;1.85;;
43706;SDS011;61348;53.392;-6.248;2023-05-10T02:10:25;9.02;;;1.50;;
43706;SDS011;61348;53.392;-6.248;2023-05-10T02:12:53;3.72;;;1.13;;
43706;SDS011;61348;53.392;-6.248;2023-05-10T02:15:24;5.75;;;1.15;;
43706;SDS011;61348;53.392;-6.248;2023-05-10T02:17:54;5.65;;;1.05;;
43706;SDS011;61348;53.392;-6.248;2023-05-10T02:20:22;6.75;;;1.60;;
43706;SDS011;61348;53.392;-6.248;2023-05-10T02:22:51;3.47;;;1.25;;
43706;SDS011;61348;53.392;-6.248;2023-05-10T02:25:21;7.35;;;1.27;;
43706;SDS011;61348;53.392;-6.248;2023-05-10T02:27:49;7.53;;;1.63;;
43706;SDS011;61348;53.392;-6.248;2023-05-10T02:30:18;4.68;;;1.23;;
43706;SDS011;61348;53.392;-6.248;2023-05-10T02:32:45;9.57;;;1.20;;
43706;SDS011;61348;53.392;-6.248;2023-05-10T02:35:14;3.47;;;1.27;;
43706;SDS011;61348;53.392;-6.248;2023-05-10T02:37:41;5.35;;;2.45;;
43706;SDS011;61348;53.392;-6.248;2023-05-10T02:40:10;6.57;;;1.30;;
43706;SDS011;61348;53.392;-6.248;2023-05-10T02:42:37;6.07;;;2.00;;
43706;SDS011;61348;53.392;-6.248;2023-05-10T02:45:10;6.97;;;1.42;;
43706;SDS011;61348;53.392;-6.248;2023-05-10T02:47:39;5.57;;;1.45;;
43706;SDS011;61348;53.392;-6.248;2023-05-10T02:50:06;6.35;;;1.92;;
43706;SDS011;61348;53.392;-6.248;2023-05-10T02:52:38;4.68;;;1.20;;
43706;SDS011;61348;53.392;-6.248;2023-05-10T02:55:09;5.65;;;1.48;;
43706;SDS011;61348;53.392;-6.248;2023-05-10T02:57:38;8.88;;;1.33;;
43706;SDS011;61348;53.392;-6.248;2023-05-10T03:00:09;6.60;;;1.77;;
43706;SDS011;61348;53.392;-6.248;2023-05-10T03:02:36;2.55;;;1.30;;
43706;SDS011;61348;53.392;-6.248;2023-05-10T03:05:05;11.10;;;2.92;;
43706;SDS011;61348;53.392;-6.248;2023-05-10T03:07:32;5.38;;;1.40;;
43706;SDS011;61348;53.392;-6.248;2023-05-10T03:09:59;9.32;;;1.20;;
43706;SDS011;61348;53.392;-6.248;2023-05-10T03:12:33;10.43;;;1.92;;
43706;SDS011;61348;53.392;-6.248;2023-05-10T03:20:25;10.57;;;2.63;;
43706;SDS011;61348;53.392;-6.248;2023-05-10T03:26:01;6.28;;;1.60;;
43706;SDS011;61348;53.392;-6.248;2023-05-10T03:28:31;7.38;;;1.83;;
43706;SDS011;61348;53.392;-6.248;2023-05-10T03:31:00;7.20;;;1.60;;
43706;SDS011;61348;53.392;-6.248;2023-05-10T03:33:28;6.18;;;1.50;;
43706;SDS011;61348;53.392;-6.248;2023-05-10T03:35:55;9.20;;;1.90;;
43706;SDS011;61348;53.392;-6.248;2023-05-10T03:38:22;4.50;;;1.25;;
43706;SDS011;61348;53.392;-6.248;2023-05-10T03:40:52;9.35;;;1.70;;
43706;SDS011;61348;53.392;-6.248;2023-05-10T03:43:19;7.50;;;1.48;;
43706;SDS011;61348;53.392;-6.248;2023-05-10T03:45:45;8.95;;;1.33;;
43706;SDS011;61348;53.392;-6.248;2023-05-10T03:48:13;8.77;;;2.40;;
43706;SDS011;61348;53.392;-6.248;2023-05-10T03:50:40;5.57;;;2.38;;
43706;SDS011;61348;53.392;-6.248;2023-05-10T03:53:06;7.85;;;1.40;;
43706;SDS011;61348;53.392;-6.248;2023-05-10T03:55:33;5.70;;;2.15;;
43706;SDS011;61348;53.392;-6.248;2023-05-10T03:58:02;3.80;;;1.92;;
43706;SDS011;61348;53.392;-6.248;2023-05-10T04:00:29;6.32;;;1.05;;
43706;SDS011;61348;53.392;-6.248;2023-05-10T04:02:56;11.23;;;2.28;;
43706;SDS011;61348;53.392;-6.248;2023-05-10T04:05:23;5.28;;;0.98;;
43706;SDS011;61348;53.392;-6.248;2023-05-10T04:07:50;9.57;;;1.10;;
43706;SDS011;61348;53.392;-6.248;2023-05-10T04:10:20;9.88;;;1.52;;
43706;SDS011;61348;53.392;-6.248;2023-05-10T04:12:47;4.63;;;1.70;;
43706;SDS011;61348;53.392;-6.248;2023-05-10T04:15:14;8.05;;;1.33;;
43706;SDS011;61348;53.392;-6.248;2023-05-10T04:17:41;7.75;;;1.50;;
43706;SDS011;61348;53.392;-6.248;2023-05-10T04:20:07;4.85;;;1.70;;
43706;SDS011;61348;53.392;-6.248;2023-05-10T04:22:34;8.55;;;1.40;;
43706;SDS011;61348;53.392;-6.248;2023-05-10T04:25:01;5.97;;;1.20;;
43706;SDS011;61348;53.392;-6.248;2023-05-10T04:27:28;5.70;;;1.35;;
43706;SDS011;61348;53.392;-6.248;2023-05-10T04:29:54;11.32;;;1.90;;
43706;SDS011;61348;53.392;-6.248;2023-05-10T04:32:21;7.53;;;2.15;;
43706;SDS011;61348;53.392;-6.248;2023-05-10T04:34:48;5.35;;;1.25;;
43706;SDS011;61348;53.392;-6.248;2023-05-10T04:37:17;7.78;;;1.33;;
43706;SDS011;61348;53.392;-6.248;2023-05-10T04:39:44;8.93;;;1.77;;
43706;SDS011;61348;53.392;-6.248;2023-05-10T04:42:11;6.47;;;1.40;;
43706;SDS011;61348;53.392;-6.248;2023-05-10T04:44:38;7.70;;;1.10;;
43706;SDS011;61348;53.392;-6.248;2023-05-10T04:47:05;5.85;;;1.67;;
43706;SDS011;61348;53.392;-6.248;2023-05-10T04:49:31;4.13;;;1.30;;
43706;SDS011;61348;53.392;-6.248;2023-05-10T04:51:58;5.95;;;2.85;;
43706;SDS011;61348;53.392;-6.248;2023-05-10T04:54:25;5.07;;;1.35;;
43706;SDS011;61348;53.392;-6.248;2023-05-10T04:56:52;5.88;;;1.42;;
43706;SDS011;61348;53.392;-6.248;2023-05-10T04:59:18;6.47;;;1.23;;
43706;SDS011;61348;53.392;-6.248;2023-05-10T05:01:45;5.95;;;1.40;;
43706;SDS011;61348;53.392;-6.248;2023-05-10T05:04:12;9.90;;;1.25;;
43706;SDS011;61348;53.392;-6.248;2023-05-10T05:06:38;2.65;;;0.85;;
43706;SDS011;61348;53.392;-6.248;2023-05-10T05:09:05;7.05;;;1.50;;
43706;SDS011;61348;53.392;-6.248;2023-05-10T05:11:32;6.10;;;1.65;;
43706;SDS011;61348;53.392;-6.248;2023-05-10T05:13:58;5.53;;;1.02;;
43706;SDS011;61348;53.392;-6.248;2023-05-10T05:16:25;9.07;;;1.90;;
43706;SDS011;61348;53.392;-6.248;2023-05-10T05:18:53;6.75;;;1.95;;
43706;SDS011;61348;53.392;-6.248;2023-05-10T05:21:20;6.38;;;1.70;;
43706;SDS011;61348;53.392;-6.248;2023-05-10T05:23:47;8.40;;;1.85;;
43706;SDS011;61348;53.392;-6.248;2023-05-10T05:26:14;10.10;;;1.20;;
43706;SDS011;61348;53.392;-6.248;2023-05-10T05:28:41;4.40;;;1.38;;
43706;SDS011;61348;53.392;-6.248;2023-05-10T05:31:08;8.10;;;1.52;;
43706;SDS011;61348;53.392;-6.248;2023-05-10T05:33:35;6.53;;;2.10;;
43706;SDS011;61348;53.392;-6.248;2023-05-10T05:36:03;6.20;;;1.30;;
43706;SDS011;61348;53.392;-6.248;2023-05-10T05:38:31;6.55;;;1.65;;
43706;SDS011;61348;53.392;-6.248;2023-05-10T05:40:58;5.13;;;1.17;;
43706;SDS011;61348;53.392;-6.248;2023-05-10T05:43:24;5.35;;;1.33;;
43706;SDS011;61348;53.392;-6.248;2023-05-10T05:45:52;7.05;;;1.00;;
43706;SDS011;61348;53.392;-6.248;2023-05-10T05:48:20;3.70;;;1.02;;
43706;SDS011;61348;53.392;-6.248;2023-05-10T05:50:47;5.35;;;1.30;;
43706;SDS011;61348;53.392;-6.248;2023-05-10T05:53:13;3.72;;;1.10;;
43706;SDS011;61348;53.392;-6.248;2023-05-10T05:55:40;9.82;;;1.92;;
43706;SDS011;61348;53.392;-6.248;2023-05-10T05:58:16;11.85;;;2.15;;
43706;SDS011;61348;53.392;-6.248;2023-05-10T06:00:43;4.55;;;0.93;;
43706;SDS011;61348;53.392;-6.248;2023-05-10T06:03:10;9.48;;;1.10;;
43706;SDS011;61348;53.392;-6.248;2023-05-10T06:05:37;7.38;;;1.65;;
43706;SDS011;61348;53.392;-6.248;2023-05-10T06:08:03;8.25;;;1.13;;
43706;SDS011;61348;53.392;-6.248;2023-05-10T06:10:30;3.58;;;0.93;;
43706;SDS011;61348;53.392;-6.248;2023-05-10T06:12:57;3.85;;;0.80;;
43706;SDS011;61348;53.392;-6.248;2023-05-10T06:15:24;4.15;;;0.70;;
43706;SDS011;61348;53.392;-6.248;2023-05-10T06:17:50;5.15;;;1.02;;
43706;SDS011;61348;53.392;-6.248;2023-05-10T06:20:17;3.50;;;1.38;;
43706;SDS011;61348;53.392;-6.248;2023-05-10T06:22:44;6.78;;;0.93;;
43706;SDS011;61348;53.392;-6.248;2023-05-10T06:25:11;4.43;;;0.68;;
43706;SDS011;61348;53.392;-6.248;2023-05-10T06:27:37;5.35;;;0.52;;
43706;SDS011;61348;53.392;-6.248;2023-05-10T06:30:04;2.75;;;0.52;;
43706;SDS011;61348;53.392;-6.248;2023-05-10T06:32:38;2.83;;;0.73;;
43706;SDS011;61348;53.392;-6.248;2023-05-10T06:35:05;2.78;;;0.70;;
43706;SDS011;61348;53.392;-6.248;2023-05-10T06:37:32;5.90;;;1.02;;
43706;SDS011;61348;53.392;-6.248;2023-05-10T06:39:59;2.67;;;0.60;;
43706;SDS011;61348;53.392;-6.248;2023-05-10T06:42:26;4.32;;;0.88;;
43706;SDS011;61348;53.392;-6.248;2023-05-10T06:44:53;3.67;;;0.70;;
43706;SDS011;61348;53.392;-6.248;2023-05-10T06:47:20;2.33;;;0.90;;
43706;SDS011;61348;53.392;-6.248;2023-05-10T06:49:46;4.38;;;0.55;;
43706;SDS011;61348;53.392;-6.248;2023-05-10T06:52:13;3.08;;;0.80;;
43706;SDS011;61348;53.392;-6.248;2023-05-10T06:54:40;6.20;;;0.90;;
43706;SDS011;61348;53.392;-6.248;2023-05-10T06:57:07;6.78;;;0.80;;
43706;SDS011;61348;53.392;-6.248;2023-05-10T06:59:45;10.13;;;2.03;;
43706;SDS011;61348;53.392;-6.248;2023-05-10T07:02:11;4.63;;;0.80;;
43706;SDS011;61348;53.392;-6.248;2023-05-10T07:04:38;2.40;;;0.68;;
43706;SDS011;61348;53.392;-6.248;2023-05-10T07:07:05;3.55;;;0.80;;
43706;SDS011;61348;53.392;-6.248;2023-05-10T07:09:32;6.68;;;1.20;;
43706;SDS011;61348;53.392;-6.248;2023-05-10T07:11:59;3.13;;;0.63;;
43706;SDS011;61348;53.392;-6.248;2023-05-10T07:14:25;4.43;;;0.85;;
43706;SDS011;61348;53.392;-6.248;2023-05-10T07:16:52;6.22;;;0.90;;
43706;SDS011;61348;53.392;-6.248;2023-05-10T07:19:19;2.80;;;0.70;;
43706;SDS011;61348;53.392;-6.248;2023-05-10T07:21:46;7.22;;;0.77;;
43706;SDS011;61348;53.392;-6.248;2023-05-10T07:24:13;8.68;;;2.25;;
43706;SDS011;61348;53.392;-6.248;2023-05-10T07:26:40;3.40;;;0.50;;
43706;SDS011;61348;53.392;-6.248;2023-05-10T07:29:07;5.78;;;1.65;;
43706;SDS011;61348;53.392;-6.248;2023-05-10T07:31:34;3.00;;;0.63;;
43706;SDS011;61348;53.392;-6.248;2023-05-10T07:34:00;3.40;;;1.02;;
43706;SDS011;61348;53.392;-6.248;2023-05-10T07:36:27;1.48;;;0.80;;
43706;SDS011;61348;53.392;-6.248;2023-05-10T07:38:54;3.55;;;1.13;;
43706;SDS011;61348;53.392;-6.248;2023-05-10T07:41:20;2.13;;;0.57;;
43706;SDS011;61348;53.392;-6.248;2023-05-10T07:43:48;4.22;;;0.75;;
43706;SDS011;61348;53.392;-6.248;2023-05-10T07:46:15;3.08;;;1.15;;
43706;SDS011;61348;53.392;-6.248;2023-05-10T07:48:43;1.88;;;0.43;;
43706;SDS011;61348;53.392;-6.248;2023-05-10T07:51:09;3.13;;;0.30;;
43706;SDS011;61348;53.392;-6.248;2023-05-10T07:53:37;5.82;;;0.50;;
43706;SDS011;61348;53.392;-6.248;2023-05-10T07:56:26;2.53;;;0.50;;
43706;SDS011;61348;53.392;-6.248;2023-05-10T07:58:58;5.78;;;1.15;;
43706;SDS011;61348;53.392;-6.248;2023-05-10T08:01:26;1.35;;;0.52;;
43706;SDS011;61348;53.392;-6.248;2023-05-10T08:03:58;1.50;;;0.40;;
43706;SDS011;61348;53.392;-6.248;2023-05-10T08:06:25;1.55;;;0.60;;
43706;SDS011;61348;53.392;-6.248;2023-05-10T08:08:56;1.20;;;0.57;;
43706;SDS011;61348;53.392;-6.248;2023-05-10T08:11:24;1.13;;;0.40;;
43706;SDS011;61348;53.392;-6.248;2023-05-10T08:13:51;1.17;;;0.45;;
43706;SDS011;61348;53.392;-6.248;2023-05-10T08:16:18;2.42;;;0.77;;
43706;SDS011;61348;53.392;-6.248;2023-05-10T08:18:46;1.45;;;0.30;;
43706;SDS011;61348;53.392;-6.248;2023-05-10T08:21:13;1.95;;;0.20;;
43706;SDS011;61348;53.392;-6.248;2023-05-10T08:23:41;0.98;;;0.30;;
43706;SDS011;61348;53.392;-6.248;2023-05-10T08:26:10;0.77;;;0.30;;
43706;SDS011;61348;53.392;-6.248;2023-05-10T08:28:37;0.47;;;0.30;;
43706;SDS011;61348;53.392;-6.248;2023-05-10T08:31:04;1.75;;;0.20;;
43706;SDS011;61348;53.392;-6.248;2023-05-10T08:33:32;1.45;;;0.57;;
43706;SDS011;61348;53.392;-6.248;2023-05-10T08:35:59;0.57;;;0.35;;
43706;SDS011;61348;53.392;-6.248;2023-05-10T08:38:26;1.02;;;0.32;;
43706;SDS011;61348;53.392;-6.248;2023-05-10T08:40:53;0.55;;;0.30;;
43706;SDS011;61348;53.392;-6.248;2023-05-10T08:43:26;1.13;;;0.50;;
43706;SDS011;61348;53.392;-6.248;2023-05-10T08:45:56;1.35;;;0.75;;
43706;SDS011;61348;53.392;-6.248;2023-05-10T08:48:26;2.20;;;0.77;;
43706;SDS011;61348;53.392;-6.248;2023-05-10T08:50:57;2.17;;;0.70;;
43706;SDS011;61348;53.392;-6.248;2023-05-10T08:53:25;1.63;;;0.63;;
43706;SDS011;61348;53.392;-6.248;2023-05-10T08:55:53;1.13;;;0.30;;
43706;SDS011;61348;53.392;-6.248;2023-05-10T08:58:22;0.88;;;0.32;;
43706;SDS011;61348;53.392;-6.248;2023-05-10T09:00:49;1.75;;;0.30;;
43706;SDS011;61348;53.392;-6.248;2023-05-10T09:03:20;1.05;;;0.20;;
43706;SDS011;61348;53.392;-6.248;2023-05-10T09:05:48;1.35;;;0.28;;
43706;SDS011;61348;53.392;-6.248;2023-05-10T09:08:15;4.65;;;0.30;;
43706;SDS011;61348;53.392;-6.248;2023-05-10T09:10:43;1.42;;;0.40;;
43706;SDS011;61348;53.392;-6.248;2023-05-10T09:13:13;3.58;;;0.40;;
43706;SDS011;61348;53.392;-6.248;2023-05-10T09:15:41;2.67;;;0.63;;
43706;SDS011;61348;53.392;-6.248;2023-05-10T09:18:10;3.40;;;0.38;;
43706;SDS011;61348;53.392;-6.248;2023-05-10T09:20:37;2.65;;;0.52;;
43706;SDS011;61348;53.392;-6.248;2023-05-10T09:23:04;4.03;;;1.27;;
43706;SDS011;61348;53.392;-6.248;2023-05-10T09:25:31;1.27;;;0.52;;
43706;SDS011;61348;53.392;-6.248;2023-05-10T09:28:01;1.15;;;0.30;;
43706;SDS011;61348;53.392;-6.248;2023-05-10T09:30:29;3.25;;;0.30;;
43706;SDS011;61348;53.392;-6.248;2023-05-10T09:32:58;0.60;;;0.30;;
43706;SDS011;61348;53.392;-6.248;2023-05-10T09:35:26;2.90;;;0.57;;
43706;SDS011;61348;53.392;-6.248;2023-05-10T09:37:56;1.20;;;0.40;;
43706;SDS011;61348;53.392;-6.248;2023-05-10T09:40:26;1.05;;;0.52;;
43706;SDS011;61348;53.392;-6.248;2023-05-10T09:45:25;1.60;;;0.30;;
43706;SDS011;61348;53.392;-6.248;2023-05-10T09:47:54;0.77;;;0.30;;
43706;SDS011;61348;53.392;-6.248;2023-05-10T09:50:22;2.00;;;0.50;;
43706;SDS011;61348;53.392;-6.248;2023-05-10T09:52:53;0.60;;;0.30;;
43706;SDS011;61348;53.392;-6.248;2023-05-10T09:58:00;3.53;;;0.93;;
43706;SDS011;61348;53.392;-6.248;2023-05-10T10:00:28;0.47;;;0.20;;
43706;SDS011;61348;53.392;-6.248;2023-05-10T10:03:01;0.70;;;0.40;;
43706;SDS011;61348;53.392;-6.248;2023-05-10T10:05:31;0.43;;;0.30;;
43706;SDS011;61348;53.392;-6.248;2023-05-10T10:07:59;1.67;;;0.32;;
43706;SDS011;61348;53.392;-6.248;2023-05-10T10:10:28;1.40;;;0.32;;
43706;SDS011;61348;53.392;-6.248;2023-05-10T10:12:55;0.68;;;0.35;;
43706;SDS011;61348;53.392;-6.248;2023-05-10T10:15:22;1.00;;;0.40;;
43706;SDS011;61348;53.392;-6.248;2023-05-10T10:17:51;1.20;;;0.30;;
43706;SDS011;61348;53.392;-6.248;2023-05-10T10:20:19;1.58;;;0.73;;
43706;SDS011;61348;53.392;-6.248;2023-05-10T10:22:47;1.35;;;0.28;;
43706;SDS011;61348;53.392;-6.248;2023-05-10T10:25:15;0.73;;;0.20;;
43706;SDS011;61348;53.392;-6.248;2023-05-10T10:35:43;1.65;;;0.40;;
43706;SDS011;61348;53.392;-6.248;2023-05-10T10:38:13;1.33;;;0.40;;
43706;SDS011;61348;53.392;-6.248;2023-05-10T10:40:40;2.45;;;0.38;;
43706;SDS011;61348;53.392;-6.248;2023-05-10T10:43:23;0.95;;;0.20;;
43706;SDS011;61348;53.392;-6.248;2023-05-10T10:48:50;1.60;;;0.20;;
43706;SDS011;61348;53.392;-6.248;2023-05-10T10:51:38;2.42;;;0.35;;
43706;SDS011;61348;53.392;-6.248;2023-05-10T10:54:09;1.80;;;0.47;;
43706;SDS011;61348;53.392;-6.248;2023-05-10T10:56:36;0.22;;;0.20;;
43706;SDS011;61348;53.392;-6.248;2023-05-10T10:59:03;0.47;;;0.47;;
43706;SDS011;61348;53.392;-6.248;2023-05-10T11:01:33;1.23;;;0.88;;
43706;SDS011;61348;53.392;-6.248;2023-05-10T11:06:32;2.25;;;0.73;;
43706;SDS011;61348;53.392;-6.248;2023-05-10T11:11:34;0.50;;;0.20;;
43706;SDS011;61348;53.392;-6.248;2023-05-10T11:14:04;0.20;;;0.10;;
43706;SDS011;61348;53.392;-6.248;2023-05-10T11:16:42;0.22;;;0.22;;
43706;SDS011;61348;53.392;-6.248;2023-05-10T11:19:11;0.20;;;0.10;;
43706;SDS011;61348;53.392;-6.248;2023-05-10T11:21:46;0.45;;;0.13;;
43706;SDS011;61348;53.392;-6.248;2023-05-10T11:24:16;0.32;;;0.20;;
43706;SDS011;61348;53.392;-6.248;2023-05-10T11:26:54;1.05;;;0.20;;
43706;SDS011;61348;53.392;-6.248;2023-05-10T11:29:21;1.08;;;0.20;;
43706;SDS011;61348;53.392;-6.248;2023-05-10T11:31:48;1.25;;;0.32;;
43706;SDS011;61348;53.392;-6.248;2023-05-10T11:34:26;1.85;;;0.30;;
43706;SDS011;61348;53.392;-6.248;2023-05-10T11:36:57;1.20;;;0.28;;
43706;SDS011;61348;53.392;-6.248;2023-05-10T11:39:28;0.40;;;0.25;;
43706;SDS011;61348;53.392;-6.248;2023-05-10T11:41:56;0.65;;;0.65;;
43706;SDS011;61348;53.392;-6.248;2023-05-10T11:44:28;0.82;;;0.45;;
43706;SDS011;61348;53.392;-6.248;2023-05-10T11:46:58;3.45;;;0.50;;
43706;SDS011;61348;53.392;-6.248;2023-05-10T11:49:26;1.70;;;0.30;;
43706;SDS011;61348;53.392;-6.248;2023-05-10T11:51:53;0.77;;;0.30;;
43706;SDS011;61348;53.392;-6.248;2023-05-10T11:54:19;3.58;;;0.40;;
43706;SDS011;61348;53.392;-6.248;2023-05-10T11:56:46;1.73;;;0.20;;
43706;SDS011;61348;53.392;-6.248;2023-05-10T11:59:13;1.98;;;0.22;;
43706;SDS011;61348;53.392;-6.248;2023-05-10T12:01:41;2.38;;;0.20;;
43706;SDS011;61348;53.392;-6.248;2023-05-10T12:04:08;0.98;;;0.43;;
43706;SDS011;61348;53.392;-6.248;2023-05-10T12:06:37;1.38;;;0.22;;
43706;SDS011;61348;53.392;-6.248;2023-05-10T12:09:07;1.88;;;0.38;;
43706;SDS011;61348;53.392;-6.248;2023-05-10T12:11:36;0.40;;;0.20;;
43706;SDS011;61348;53.392;-6.248;2023-05-10T12:14:09;1.10;;;0.20;;
43706;SDS011;61348;53.392;-6.248;2023-05-10T12:16:36;0.82;;;0.28;;
43706;SDS011;61348;53.392;-6.248;2023-05-10T12:19:03;0.70;;;0.30;;
43706;SDS011;61348;53.392;-6.248;2023-05-10T12:21:30;1.45;;;0.60;;
43706;SDS011;61348;53.392;-6.248;2023-05-10T12:24:03;1.55;;;0.63;;
43706;SDS011;61348;53.392;-6.248;2023-05-10T12:26:32;1.38;;;0.50;;
43706;SDS011;61348;53.392;-6.248;2023-05-10T12:29:17;0.93;;;0.40;;
43706;SDS011;61348;53.392;-6.248;2023-05-10T12:31:52;1.98;;;0.55;;
43706;SDS011;61348;53.392;-6.248;2023-05-10T12:34:27;3.67;;;0.75;;
43706;SDS011;61348;53.392;-6.248;2023-05-10T12:36:57;3.10;;;0.60;;
43706;SDS011;61348;53.392;-6.248;2023-05-10T12:39:24;0.10;;;0.10;;
43706;SDS011;61348;53.392;-6.248;2023-05-10T12:41:51;0.57;;;0.25;;
43706;SDS011;61348;53.392;-6.248;2023-05-10T12:44:18;1.08;;;0.40;;
43706;SDS011;61348;53.392;-6.248;2023-05-10T12:46:45;1.85;;;0.40;;
43706;SDS011;61348;53.392;-6.248;2023-05-10T12:49:12;1.58;;;0.30;;
43706;SDS011;61348;53.392;-6.248;2023-05-10T12:51:39;0.63;;;0.20;;
43706;SDS011;61348;53.392;-6.248;2023-05-10T12:54:06;1.02;;;0.40;;
43706;SDS011;61348;53.392;-6.248;2023-05-10T12:56:32;1.27;;;0.20;;
43706;SDS011;61348;53.392;-6.248;2023-05-10T12:58:59;3.53;;;0.22;;
43706;SDS011;61348;53.392;-6.248;2023-05-10T13:01:26;1.17;;;0.10;;
43706;SDS011;61348;53.392;-6.248;2023-05-10T13:03:53;1.20;;;0.20;;
43706;SDS011;61348;53.392;-6.248;2023-05-10T13:06:20;1.33;;;0.20;;
43706;SDS011;61348;53.392;-6.248;2023-05-10T13:08:46;1.42;;;0.30;;
43706;SDS011;61348;53.392;-6.248;2023-05-10T13:11:13;1.00;;;0.30;;
43706;SDS011;61348;53.392;-6.248;2023-05-10T13:13:42;2.78;;;0.30;;
43706;SDS011;61348;53.392;-6.248;2023-05-10T13:16:09;1.48;;;0.40;;
43706;SDS011;61348;53.392;-6.248;2023-05-10T13:18:36;1.08;;;0.40;;
43706;SDS011;61348;53.392;-6.248;2023-05-10T13:21:03;2.38;;;0.35;;
43706;SDS011;61348;53.392;-6.248;2023-05-10T13:23:31;1.80;;;0.30;;
43706;SDS011;61348;53.392;-6.248;2023-05-10T13:25:58;3.03;;;0.30;;
43706;SDS011;61348;53.392;-6.248;2023-05-10T13:28:25;1.52;;;0.30;;
43706;SDS011;61348;53.392;-6.248;2023-05-10T13:30:52;0.93;;;0.30;;
43706;SDS011;61348;53.392;-6.248;2023-05-10T13:33:19;0.32;;;0.13;;
43706;SDS011;61348;53.392;-6.248;2023-05-10T13:35:45;1.75;;;0.50;;
43706;SDS011;61348;53.392;-6.248;2023-05-10T13:38:12;0.65;;;0.20;;
43706;SDS011;61348;53.392;-6.248;2023-05-10T13:40:40;1.08;;;0.30;;
43706;SDS011;61348;53.392;-6.248;2023-05-10T13:43:06;0.43;;;0.35;;
43706;SDS011;61348;53.392;-6.248;2023-05-10T13:45:33;0.20;;;0.20;;
43706;SDS011;61348;53.392;-6.248;2023-05-10T13:48:00;0.60;;;0.20;;
43706;SDS011;61348;53.392;-6.248;2023-05-10T13:50:26;0.95;;;0.47;;
43706;SDS011;61348;53.392;-6.248;2023-05-10T13:52:53;0.38;;;0.30;;
43706;SDS011;61348;53.392;-6.248;2023-05-10T13:55:20;0.98;;;0.30;;
43706;SDS011;61348;53.392;-6.248;2023-05-10T13:57:46;1.75;;;0.60;;
43706;SDS011;61348;53.392;-6.248;2023-05-10T14:00:13;1.85;;;0.47;;
43706;SDS011;61348;53.392;-6.248;2023-05-10T14:02:41;1.92;;;0.55;;
43706;SDS011;61348;53.392;-6.248;2023-05-10T14:05:08;0.25;;;0.25;;
43706;SDS011;61348;53.392;-6.248;2023-05-10T14:07:34;2.40;;;0.47;;
43706;SDS011;61348;53.392;-6.248;2023-05-10T14:10:01;1.35;;;0.50;;
43706;SDS011;61348;53.392;-6.248;2023-05-10T14:12:29;4.65;;;0.60;;
43706;SDS011;61348;53.392;-6.248;2023-05-10T14:14:55;0.63;;;0.30;;
43706;SDS011;61348;53.392;-6.248;2023-05-10T14:17:24;1.23;;;0.50;;
43706;SDS011;61348;53.392;-6.248;2023-05-10T14:19:52;2.20;;;0.38;;
43706;SDS011;61348;53.392;-6.248;2023-05-10T14:22:20;0.98;;;0.30;;
43706;SDS011;61348;53.392;-6.248;2023-05-10T14:24:46;2.38;;;0.30;;
43706;SDS011;61348;53.392;-6.248;2023-05-10T14:27:13;4.50;;;0.88;;
43706;SDS011;61348;53.392;-6.248;2023-05-10T14:29:40;2.30;;;0.70;;
43706;SDS011;61348;53.392;-6.248;2023-05-10T14:32:08;0.73;;;0.63;;
43706;SDS011;61348;53.392;-6.248;2023-05-10T14:34:35;1.50;;;0.40;;
43706;SDS011;61348;53.392;-6.248;2023-05-10T14:37:02;1.70;;;0.88;;
43706;SDS011;61348;53.392;-6.248;2023-05-10T14:39:28;2.50;;;0.40;;
43706;SDS011;61348;53.392;-6.248;2023-05-10T14:41:56;3.15;;;0.40;;
43706;SDS011;61348;53.392;-6.248;2023-05-10T14:44:24;3.65;;;0.77;;
43706;SDS011;61348;53.392;-6.248;2023-05-10T14:46:51;1.17;;;0.77;;
43706;SDS011;61348;53.392;-6.248;2023-05-10T14:49:18;1.38;;;0.30;;
43706;SDS011;61348;53.392;-6.248;2023-05-10T14:51:44;2.08;;;0.40;;
43706;SDS011;61348;53.392;-6.248;2023-05-10T14:54:11;1.63;;;0.30;;
43706;SDS011;61348;53.392;-6.248;2023-05-10T14:56:38;3.33;;;0.47;;
43706;SDS011;61348;53.392;-6.248;2023-05-10T14:59:05;2.92;;;0.50;;
43706;SDS011;61348;53.392;-6.248;2023-05-10T15:01:32;1.20;;;0.40;;
43706;SDS011;61348;53.392;-6.248;2023-05-10T15:04:02;3.05;;;1.40;;
43706;SDS011;61348;53.392;-6.248;2023-05-10T15:06:33;2.28;;;0.68;;
43706;SDS011;61348;53.392;-6.248;2023-05-10T15:09:01;1.40;;;0.30;;
43706;SDS011;61348;53.392;-6.248;2023-05-10T15:11:29;0.88;;;0.30;;
43706;SDS011;61348;53.392;-6.248;2023-05-10T15:13:56;0.70;;;0.40;;
43706;SDS011;61348;53.392;-6.248;2023-05-10T15:16:23;0.20;;;0.10;;
43706;SDS011;61348;53.392;-6.248;2023-05-10T15:18:50;1.45;;;0.28;;
43706;SDS011;61348;53.392;-6.248;2023-05-10T15:21:17;1.35;;;0.30;;
43706;SDS011;61348;53.392;-6.248;2023-05-10T15:23:43;1.48;;;0.45;;